Time;durP1;ratioP1;P1;durP2;ratioP2;P2;SDS_P1;SDS_P2;PMS_P1;PMS_P2;Temp;Humidity;BMP_temperature;BMP_pressure;BME280_temperature;BME280_humidity;BME280_pressure;Samples;Min_cycle;Max_cycle;Signal;HPM_P1;HPM_P2
2022/10/03 00:00:06;;;;;;;;;;;10.30;99.90;;;;;;5083733;28;20420;-80
2022/10/03 00:02:37;;;;;;;;;;;10.20;99.90;;;;;;5063934;28;19917;-80
2022/10/03 00:05:09;;;;;;;;;;;10.20;99.90;;;;;;5054744;28;20418;-80
2022/10/03 00:07:37;;;;;;;;;;;10.00;99.90;;;;;;5060006;28;19932;-80
2022/10/03 00:10:23;;;;;;;;;;;10.00;99.90;;;;;;5060745;28;19916;-80
2022/10/03 00:12:48;;;;;;;;;;;9.90;99.90;;;;;;5058598;28;19913;-80
2022/10/03 00:15:24;;;;;;;;;;;9.90;99.90;;;;;;5062574;28;20271;-80
2022/10/03 00:18:12;;;;;;;;;;;9.90;99.90;;;;;;5058923;28;20277;-80
2022/10/03 00:20:37;;;;;;;;;;;9.80;99.90;;;;;;5057448;28;19920;-80
2022/10/03 00:23:07;;;;;;;;;;;9.80;99.90;;;;;;5056999;28;20143;-80
2022/10/03 00:25:33;;;;;;;;;;;9.80;99.90;;;;;;5054957;28;19913;-80
2022/10/03 00:28:17;;;;;;;;;;;9.70;99.90;;;;;;5060834;28;19928;-80
2022/10/03 00:31:07;;;;;;;;;;;9.70;99.90;;;;;;5062893;28;19924;-81
2022/10/03 00:33:46;;;;;;;;;;;9.60;99.90;;;;;;5065786;28;20281;-80
2022/10/03 00:36:12;;;;;;;;;;;9.50;99.90;;;;;;5060903;28;19940;-80
2022/10/03 00:38:43;;;;;;;;;;;9.50;99.90;;;;;;5067609;28;19913;-81
2022/10/03 00:41:18;;;;;;;;;;;9.40;99.90;;;;;;5070382;28;20008;-81
2022/10/03 00:44:03;;;;;;;;;;;9.30;99.90;;;;;;5068876;28;19936;-85
2022/10/03 00:47:00;;;;;;;;;;;9.30;99.90;;;;;;5062793;28;19917;-86
2022/10/03 00:49:26;;;;;;;;;;;9.20;99.90;;;;;;5018678;28;19979;-80
2022/10/03 00:52:00;;;;;;;;;;;9.10;99.90;;;;;;5054913;28;19909;-80
2022/10/03 00:54:26;;;;;;;;;;;9.10;99.90;;;;;;5060398;28;20363;-81
2022/10/03 00:57:03;;;;;;;;;;;9.10;99.90;;;;;;5064555;28;19927;-81
2022/10/03 00:59:39;;;;;;;;;;;9.00;99.90;;;;;;5054492;28;19947;-81
2022/10/03 01:02:24;;;;;;;;;;;8.90;99.90;;;;;;5058732;28;19921;-81
2022/10/03 01:04:49;;;;;;;;;;;8.90;99.90;;;;;;5055589;28;19916;-81
2022/10/03 01:07:26;;;;;;;;;;;8.80;99.90;;;;;;5062583;28;20389;-80
2022/10/03 01:10:00;;;;;;;;;;;8.80;99.90;;;;;;5061397;28;19967;-81
2022/10/03 01:12:31;;;;;;;;;;;8.60;99.90;;;;;;5060884;28;20004;-81
2022/10/03 01:15:16;;;;;;;;;;;8.40;99.90;;;;;;5051653;28;20209;-81
2022/10/03 01:17:52;;;;;;;;;;;8.40;99.90;;;;;;5063243;28;19923;-81
2022/10/03 01:20:21;;;;;;;;;;;8.40;99.90;;;;;;5049386;28;19963;-82
2022/10/03 01:22:52;;;;;;;;;;;8.40;99.90;;;;;;5065562;28;19912;-80
2022/10/03 01:25:18;;;;;;;;;;;8.30;99.90;;;;;;5060175;28;20472;-81
2022/10/03 01:30:43;;;;;;;;;;;8.10;99.90;;;;;;5065104;28;20389;-81
2022/10/03 01:33:22;;;;;;;;;;;8.00;99.90;;;;;;5059184;28;19920;-81
2022/10/03 01:35:54;;;;;;;;;;;7.90;99.90;;;;;;5057268;28;19940;-82
2022/10/03 01:38:25;;;;;;;;;;;8.00;99.90;;;;;;5061001;28;19916;-81
2022/10/03 01:40:54;;;;;;;;;;;7.90;99.90;;;;;;5052266;28;19917;-82
2022/10/03 01:43:21;;;;;;;;;;;7.90;99.90;;;;;;5055168;28;19921;-80
2022/10/03 01:46:05;;;;;;;;;;;7.80;99.90;;;;;;5055038;28;20310;-81
2022/10/03 01:48:30;;;;;;;;;;;7.60;99.90;;;;;;5064747;28;19924;-82
2022/10/03 01:51:02;;;;;;;;;;;7.40;99.90;;;;;;5060845;28;19917;-82
2022/10/03 01:53:46;;;;;;;;;;;7.20;99.90;;;;;;5060664;28;19928;-81
2022/10/03 01:56:20;;;;;;;;;;;7.20;99.90;;;;;;5051518;28;20371;-82
2022/10/03 01:58:55;;;;;;;;;;;7.40;99.90;;;;;;5058212;28;19928;-82
2022/10/03 02:01:24;;;;;;;;;;;7.40;99.90;;;;;;5067890;28;20396;-81
2022/10/03 02:03:56;;;;;;;;;;;7.50;99.90;;;;;;5079849;28;19916;-82
2022/10/03 02:06:37;;;;;;;;;;;7.40;99.90;;;;;;5079899;28;20329;-81
2022/10/03 02:09:05;;;;;;;;;;;7.30;99.90;;;;;;5079395;28;19924;-81
2022/10/03 02:11:34;;;;;;;;;;;7.20;99.90;;;;;;5078867;28;19918;-81
2022/10/03 02:14:05;;;;;;;;;;;7.20;99.90;;;;;;5077501;28;19920;-82
2022/10/03 02:16:43;;;;;;;;;;;7.00;99.90;;;;;;5082640;28;20392;-81
2022/10/03 02:19:20;;;;;;;;;;;7.00;99.90;;;;;;5074606;28;20033;-81
2022/10/03 02:21:48;;;;;;;;;;;7.00;99.90;;;;;;5082929;28;20385;-81
2022/10/03 02:24:13;;;;;;;;;;;7.00;99.90;;;;;;5084428;28;19981;-82
2022/10/03 02:26:57;;;;;;;;;;;7.00;99.90;;;;;;5076152;28;19924;-81
2022/10/03 02:29:29;;;;;;;;;;;7.00;99.90;;;;;;5082322;28;19916;-82
2022/10/03 02:32:13;;;;;;;;;;;7.00;99.90;;;;;;5062938;28;19931;-82
2022/10/03 02:34:39;;;;;;;;;;;7.00;99.90;;;;;;5054839;28;19920;-81
2022/10/03 02:37:07;;;;;;;;;;;7.00;99.90;;;;;;5061265;28;20255;-82
2022/10/03 02:39:52;;;;;;;;;;;7.00;99.90;;;;;;5059885;28;19979;-82
2022/10/03 02:42:23;;;;;;;;;;;6.90;99.90;;;;;;5056179;28;19917;-82
2022/10/03 02:45:01;;;;;;;;;;;6.70;99.90;;;;;;5066220;28;19989;-82
2022/10/03 02:47:26;;;;;;;;;;;6.50;99.90;;;;;;5059608;28;20374;-83
2022/10/03 02:50:01;;;;;;;;;;;6.60;99.90;;;;;;5054738;28;19913;-82
2022/10/03 02:52:32;;;;;;;;;;;6.50;99.90;;;;;;5064888;28;19912;-81
2022/10/03 02:55:16;;;;;;;;;;;6.60;99.90;;;;;;5060414;28;19916;-82
2022/10/03 02:57:50;;;;;;;;;;;6.50;99.90;;;;;;5053136;28;19921;-82
2022/10/03 03:00:18;;;;;;;;;;;6.50;99.90;;;;;;5066474;28;19927;-82
2022/10/03 03:03:02;;;;;;;;;;;6.60;99.90;;;;;;5061675;28;19948;-82
2022/10/03 03:05:34;;;;;;;;;;;6.60;99.90;;;;;;5052803;28;20302;-83
2022/10/03 03:08:12;;;;;;;;;;;6.60;99.90;;;;;;5062552;28;19931;-82
2022/10/03 03:10:37;;;;;;;;;;;6.60;99.90;;;;;;5060632;28;19919;-83
2022/10/03 03:13:21;;;;;;;;;;;6.50;99.90;;;;;;5054115;28;20019;-83
2022/10/03 03:15:53;;;;;;;;;;;6.50;99.90;;;;;;5067279;28;19975;-82
2022/10/03 03:18:24;;;;;;;;;;;6.50;99.90;;;;;;5081692;28;19916;-80
2022/10/03 03:20:52;;;;;;;;;;;6.50;99.90;;;;;;5068007;28;19924;-82
2022/10/03 03:23:37;;;;;;;;;;;6.40;99.90;;;;;;5060491;28;19912;-82
2022/10/03 03:26:06;;;;;;;;;;;6.40;99.90;;;;;;5059328;28;19916;-82
2022/10/03 03:28:50;;;;;;;;;;;6.40;99.90;;;;;;5052164;28;19935;-82
2022/10/03 03:31:19;;;;;;;;;;;6.30;99.90;;;;;;5070473;28;20401;-82
2022/10/03 03:33:52;;;;;;;;;;;6.30;99.90;;;;;;5078663;28;19977;-82
2022/10/03 03:36:29;;;;;;;;;;;6.30;99.90;;;;;;5074489;28;20275;-82
2022/10/03 03:39:23;;;;;;;;;;;6.00;99.90;;;;;;5074827;28;19927;-81
2022/10/03 03:42:00;;;;;;;;;;;6.10;99.90;;;;;;5073344;28;19916;-83
2022/10/03 03:44:29;;;;;;;;;;;6.10;99.90;;;;;;5077688;28;19932;-81
2022/10/03 03:47:06;;;;;;;;;;;6.20;99.90;;;;;;5078346;28;19963;-83
2022/10/03 03:49:50;;;;;;;;;;;6.20;99.90;;;;;;5073991;28;19920;-82
2022/10/03 03:52:27;;;;;;;;;;;6.20;99.90;;;;;;5085580;28;20493;-83
2022/10/03 03:55:14;;;;;;;;;;;6.20;99.90;;;;;;5075413;28;20339;-83
2022/10/03 03:57:42;;;;;;;;;;;6.10;99.90;;;;;;5072277;28;20379;-82
2022/10/03 04:00:14;;;;;;;;;;;6.10;99.90;;;;;;5083054;28;19916;-83
2022/10/03 04:02:39;;;;;;;;;;;6.10;99.90;;;;;;5079161;28;19920;-83
2022/10/03 04:05:08;;;;;;;;;;;6.10;99.90;;;;;;5076640;28;19923;-82
2022/10/03 04:07:35;;;;;;;;;;;6.00;99.90;;;;;;5076966;28;20428;-83
2022/10/03 04:10:23;;;;;;;;;;;6.00;99.90;;;;;;5080325;28;19999;-82
2022/10/03 04:13:00;;;;;;;;;;;6.00;99.90;;;;;;5064990;28;19938;-83
2022/10/03 04:15:45;;;;;;;;;;;6.00;99.90;;;;;;5073724;28;19920;-82
2022/10/03 04:21:19;;;;;;;;;;;5.90;99.90;;;;;;5077967;28;19969;-83
2022/10/03 04:23:49;;;;;;;;;;;5.80;99.90;;;;;;5079008;28;20334;-83
2022/10/03 04:26:21;;;;;;;;;;;5.80;99.90;;;;;;5073682;28;19946;-83
2022/10/03 04:28:55;;;;;;;;;;;5.80;99.90;;;;;;5076437;28;19961;-82
2022/10/03 04:31:56;;;;;;;;;;;5.80;99.90;;;;;;5080704;28;19920;-82
2022/10/03 04:34:39;;;;;;;;;;;5.80;99.90;;;;;;5043386;28;19924;-83
2022/10/03 04:37:10;;;;;;;;;;;5.80;99.90;;;;;;5082241;28;19916;-83
2022/10/03 04:39:42;;;;;;;;;;;5.80;99.90;;;;;;5072709;28;19917;-83
2022/10/03 04:42:11;;;;;;;;;;;5.80;99.90;;;;;;5070557;28;19994;-83
2022/10/03 04:44:46;;;;;;;;;;;5.80;99.90;;;;;;5081768;28;19924;-83
2022/10/03 04:47:26;;;;;;;;;;;5.90;99.90;;;;;;5077874;28;20033;-82
2022/10/03 04:50:10;;;;;;;;;;;5.90;99.90;;;;;;5077515;28;19917;-83
2022/10/03 04:52:40;;;;;;;;;;;6.00;99.90;;;;;;5080751;28;19924;-83
2022/10/03 04:55:05;;;;;;;;;;;6.10;99.90;;;;;;5077746;28;19966;-83
2022/10/03 04:57:46;;;;;;;;;;;6.10;99.90;;;;;;5076668;28;19921;-81
2022/10/03 05:00:14;;;;;;;;;;;6.10;99.90;;;;;;5089325;28;19913;-83
2022/10/03 05:02:46;;;;;;;;;;;6.10;99.90;;;;;;5082478;28;19928;-83
2022/10/03 05:05:18;;;;;;;;;;;6.00;99.90;;;;;;5081589;28;19916;-84
2022/10/03 05:07:59;;;;;;;;;;;6.10;99.90;;;;;;5086712;28;19926;-83
2022/10/03 05:10:34;;;;;;;;;;;6.00;99.90;;;;;;5077983;28;20306;-83
2022/10/03 05:13:11;;;;;;;;;;;6.00;99.90;;;;;;5079037;28;19916;-83
2022/10/03 05:15:39;;;;;;;;;;;6.00;99.90;;;;;;5075070;28;19917;-83
2022/10/03 05:18:13;;;;;;;;;;;5.80;99.90;;;;;;5081574;28;19912;-83
2022/10/03 05:20:38;;;;;;;;;;;5.80;99.90;;;;;;5059711;28;19917;-84
2022/10/03 05:23:13;;;;;;;;;;;5.70;99.90;;;;;;5078943;28;19969;-84
2022/10/03 05:26:00;;;;;;;;;;;5.60;99.90;;;;;;5075382;28;19923;-83
2022/10/03 05:28:28;;;;;;;;;;;5.60;99.90;;;;;;5076013;28;19916;-83
2022/10/03 05:31:00;;;;;;;;;;;5.60;99.90;;;;;;5077515;28;20267;-83
2022/10/03 05:33:31;;;;;;;;;;;5.50;99.90;;;;;;5076357;28;19917;-83
2022/10/03 05:36:07;;;;;;;;;;;5.60;99.90;;;;;;5072480;28;19963;-83
2022/10/03 05:38:38;;;;;;;;;;;5.60;99.90;;;;;;5070661;28;19923;-81
2022/10/03 05:41:17;;;;;;;;;;;5.70;99.90;;;;;;5078586;28;19967;-82
2022/10/03 05:43:49;;;;;;;;;;;5.70;99.90;;;;;;5079384;28;20023;-83
2022/10/03 05:46:33;;;;;;;;;;;5.70;99.90;;;;;;5076999;28;19983;-82
2022/10/03 05:49:17;;;;;;;;;;;5.90;99.90;;;;;;5075762;28;19913;-83
2022/10/03 05:52:09;;;;;;;;;;;5.80;99.90;;;;;;5096828;28;19960;-83
2022/10/03 05:54:41;;;;;;;;;;;5.80;99.90;;;;;;5086937;28;20737;-82
2022/10/03 05:57:26;;;;;;;;;;;5.90;99.90;;;;;;5070630;28;19961;-83
2022/10/03 06:00:05;;;;;;;;;;;5.90;99.90;;;;;;5071208;28;19916;-83
2022/10/03 06:02:37;;;;;;;;;;;5.90;99.90;;;;;;5079631;28;19920;-83
2022/10/03 06:05:21;;;;;;;;;;;5.90;99.90;;;;;;5076177;28;20390;-82
2022/10/03 06:07:55;;;;;;;;;;;5.90;99.90;;;;;;5083496;28;19962;-83
2022/10/03 06:10:40;;;;;;;;;;;6.00;99.90;;;;;;5077184;28;20508;-82
2022/10/03 06:13:11;;;;;;;;;;;6.00;99.90;;;;;;5073784;28;20253;-83
2022/10/03 06:15:55;;;;;;;;;;;6.30;99.90;;;;;;5085879;28;19970;-83
2022/10/03 06:18:23;;;;;;;;;;;6.20;99.90;;;;;;5078207;28;19962;-82
2022/10/03 06:20:58;;;;;;;;;;;6.30;99.90;;;;;;5082210;28;19912;-82
2022/10/03 06:23:45;;;;;;;;;;;6.40;99.90;;;;;;5084667;28;19916;-82
2022/10/03 06:26:10;;;;;;;;;;;6.40;99.90;;;;;;5074158;28;19916;-81
2022/10/03 06:28:42;;;;;;;;;;;6.50;99.90;;;;;;5077559;28;20365;-82
2022/10/03 06:31:22;;;;;;;;;;;6.60;99.90;;;;;;5075956;28;19917;-82
2022/10/03 06:33:57;;;;;;;;;;;6.70;99.90;;;;;;5057738;28;20286;-82
2022/10/03 06:36:28;;;;;;;;;;;6.70;99.90;;;;;;5061652;28;19913;-81
2022/10/03 06:39:26;;;;;;;;;;;6.70;99.90;;;;;;5063457;28;19923;-82
2022/10/03 06:42:07;;;;;;;;;;;6.60;99.90;;;;;;5049215;28;19991;-82
2022/10/03 06:44:32;;;;;;;;;;;6.60;99.90;;;;;;5061178;28;19947;-82
2022/10/03 06:47:18;;;;;;;;;;;6.80;99.90;;;;;;5059962;28;20351;-82
2022/10/03 06:49:43;;;;;;;;;;;6.80;99.90;;;;;;5052046;28;19978;-83
2022/10/03 06:52:32;;;;;;;;;;;6.90;99.90;;;;;;5064814;28;19913;-82
2022/10/03 06:55:16;;;;;;;;;;;7.00;99.90;;;;;;5052314;28;20389;-83
2022/10/03 06:58:11;;;;;;;;;;;7.10;99.90;;;;;;5057401;28;19921;-82
2022/10/03 07:00:55;;;;;;;;;;;7.20;99.90;;;;;;5055378;28;20020;-82
2022/10/03 07:03:50;;;;;;;;;;;7.30;99.90;;;;;;5057508;28;19944;-82
2022/10/03 07:06:28;;;;;;;;;;;7.30;99.90;;;;;;5061430;28;19912;-81
2022/10/03 07:09:12;;;;;;;;;;;7.40;99.90;;;;;;5060975;28;19916;-82
2022/10/03 07:11:42;;;;;;;;;;;7.60;99.90;;;;;;5057176;28;19917;-82
2022/10/03 07:14:26;;;;;;;;;;;7.80;99.90;;;;;;5065692;28;20398;-82
2022/10/03 07:16:58;;;;;;;;;;;7.90;99.90;;;;;;5060375;28;19989;-81
2022/10/03 07:19:42;;;;;;;;;;;7.90;99.90;;;;;;5051085;28;20008;-82
2022/10/03 07:22:14;;;;;;;;;;;8.00;99.90;;;;;;5062170;28;19913;-81
2022/10/03 07:24:58;;;;;;;;;;;8.20;99.90;;;;;;5059227;28;19918;-82
2022/10/03 07:27:26;;;;;;;;;;;8.30;99.90;;;;;;5056013;28;19920;-81
2022/10/03 07:30:04;;;;;;;;;;;8.40;99.90;;;;;;5062281;28;19935;-82
2022/10/03 07:32:38;;;;;;;;;;;8.50;99.90;;;;;;5053502;28;19920;-82
2022/10/03 07:35:04;;;;;;;;;;;8.60;99.90;;;;;;5052506;28;19920;-81
2022/10/03 07:40:30;;;;;;;;;;;8.90;99.90;;;;;;5059392;28;19920;-81
2022/10/03 07:42:56;;;;;;;;;;;9.00;99.90;;;;;;5057310;28;20038;-81
2022/10/03 07:45:22;;;;;;;;;;;9.10;99.90;;;;;;5062529;28;20410;-82
2022/10/03 07:48:04;;;;;;;;;;;9.20;99.90;;;;;;5060824;28;20023;-81
2022/10/03 07:50:48;;;;;;;;;;;9.30;99.90;;;;;;5057806;28;20007;-81
2022/10/03 07:53:32;;;;;;;;;;;9.50;99.90;;;;;;5060350;28;20436;-81
2022/10/03 07:56:26;;;;;;;;;;;9.70;99.90;;;;;;5049568;28;19956;-81
2022/10/03 07:59:10;;;;;;;;;;;9.80;99.90;;;;;;5060796;28;19967;-81
2022/10/03 08:01:45;;;;;;;;;;;9.70;99.90;;;;;;5049852;28;19928;-81
2022/10/03 08:04:22;;;;;;;;;;;9.80;99.90;;;;;;5048786;28;19916;-81
2022/10/03 08:07:09;;;;;;;;;;;9.90;99.90;;;;;;5053432;28;19921;-81
2022/10/03 08:09:34;;;;;;;;;;;10.00;99.90;;;;;;5051672;28;19923;-81
2022/10/03 08:12:19;;;;;;;;;;;10.10;99.90;;;;;;5047273;28;19920;-81
2022/10/03 08:15:03;;;;;;;;;;;10.20;99.90;;;;;;5054325;28;19925;-81
2022/10/03 08:17:35;;;;;;;;;;;10.30;99.90;;;;;;5052524;28;19913;-81
2022/10/03 08:20:20;;;;;;;;;;;10.50;99.90;;;;;;5054371;28;19916;-81
2022/10/03 08:23:03;;;;;;;;;;;10.50;99.90;;;;;;5062751;28;19967;-81
2022/10/03 08:25:35;;;;;;;;;;;10.70;99.90;;;;;;5071472;28;19928;-82
2022/10/03 08:28:01;;;;;;;;;;;10.60;99.90;;;;;;5064152;28;20436;-81
2022/10/03 08:30:40;;;;;;;;;;;10.90;99.90;;;;;;5049341;28;19944;-81
2022/10/03 08:33:14;;;;;;;;;;;11.00;99.90;;;;;;5067918;28;20271;-81
2022/10/03 08:35:40;;;;;;;;;;;11.00;99.90;;;;;;5052210;28;19963;-81
2022/10/03 08:38:05;;;;;;;;;;;11.20;99.90;;;;;;5062318;28;20352;-80
2022/10/03 08:40:43;;;;;;;;;;;11.10;99.90;;;;;;5051654;28;19913;-81
2022/10/03 08:43:11;;;;;;;;;;;11.50;99.90;;;;;;5053233;28;19959;-81
2022/10/03 08:45:42;;;;;;;;;;;11.60;99.90;;;;;;5060853;28;19963;-81
2022/10/03 08:48:26;;;;;;;;;;;11.50;99.90;;;;;;5051615;28;19960;-81
2022/10/03 08:51:07;;;;;;;;;;;11.30;99.90;;;;;;5060207;28;19913;-81
2022/10/03 08:53:41;;;;;;;;;;;11.80;99.90;;;;;;5059875;28;19960;-81
2022/10/03 08:56:10;;;;;;;;;;;12.20;99.90;;;;;;5052356;28;19917;-81
2022/10/03 08:58:53;;;;;;;;;;;12.40;99.90;;;;;;5060061;28;19923;-81
2022/10/03 09:01:37;;;;;;;;;;;12.30;99.90;;;;;;5064725;28;19964;-80
2022/10/03 09:04:11;;;;;;;;;;;12.30;99.90;;;;;;5072299;28;19924;-81
2022/10/03 09:06:39;;;;;;;;;;;12.40;99.90;;;;;;5081299;28;19916;-81
2022/10/03 09:09:05;;;;;;;;;;;12.40;99.90;;;;;;5078048;28;20031;-80
2022/10/03 09:11:30;;;;;;;;;;;12.00;99.90;;;;;;5074354;28;19972;-81
2022/10/03 09:14:02;;;;;;;;;;;12.50;95.40;;;;;;5087394;28;19919;-81
2022/10/03 09:16:27;;;;;;;;;;;12.40;96.20;;;;;;5080967;28;20324;-81
2022/10/03 09:19:22;;;;;;;;;;;12.50;91.50;;;;;;5075748;28;19927;-81
2022/10/03 09:21:53;;;;;;;;;;;12.30;94.40;;;;;;5046161;28;20003;-81
2022/10/03 09:24:25;;;;;;;;;;;12.70;91.60;;;;;;5071724;28;20006;-81
2022/10/03 09:26:59;;;;;;;;;;;12.80;91.10;;;;;;5073978;28;19916;-81
2022/10/03 09:29:43;;;;;;;;;;;13.10;90.90;;;;;;5083255;28;19924;-81
2022/10/03 09:32:09;;;;;;;;;;;13.30;89.10;;;;;;5061809;28;19920;-81
2022/10/03 09:34:53;;;;;;;;;;;13.30;88.60;;;;;;5054920;28;19917;-81
2022/10/03 09:37:19;;;;;;;;;;;13.40;82.70;;;;;;5059294;28;19913;-81
2022/10/03 09:40:03;;;;;;;;;;;13.40;82.90;;;;;;5054958;28;19965;-80
2022/10/03 09:42:48;;;;;;;;;;;13.80;80.80;;;;;;5056105;28;20328;-81
2022/10/03 09:45:32;;;;;;;;;;;14.00;80.90;;;;;;5066674;28;19920;-81
2022/10/03 09:47:57;;;;;;;;;;;14.00;78.90;;;;;;5057195;28;19928;-81
2022/10/03 09:50:38;;;;;;;;;;;14.00;82.40;;;;;;5061628;28;20007;-81
2022/10/03 09:53:04;;;;;;;;;;;13.50;80.70;;;;;;5060311;28;19916;-80
2022/10/03 09:55:32;;;;;;;;;;;13.40;84.50;;;;;;5059324;28;19978;-81
2022/10/03 09:58:04;;;;;;;;;;;13.70;82.30;;;;;;5064501;28;20009;-81
2022/10/03 10:00:43;;;;;;;;;;;14.10;78.80;;;;;;5058952;28;19920;-80
2022/10/03 10:03:25;;;;;;;;;;;14.40;76.30;;;;;;5060092;28;19955;-80
2022/10/03 10:06:02;;;;;;;;;;;14.90;79.50;;;;;;5063879;28;19924;-81
2022/10/03 10:08:47;;;;;;;;;;;14.40;76.50;;;;;;5057718;28;19959;-80
2022/10/03 10:11:26;;;;;;;;;;;14.30;76.80;;;;;;5054459;28;19912;-80
2022/10/03 10:14:10;;;;;;;;;;;14.50;80.50;;;;;;5067147;28;19917;-80
2022/10/03 10:16:35;;;;;;;;;;;14.50;79.70;;;;;;5049358;28;19912;-80
2022/10/03 10:19:07;;;;;;;;;;;14.50;78.00;;;;;;5059835;28;19918;-80
2022/10/03 10:21:35;;;;;;;;;;;14.60;76.90;;;;;;5062483;28;20346;-80
2022/10/03 10:24:16;;;;;;;;;;;15.00;75.70;;;;;;5060355;28;19916;-80
2022/10/03 10:26:51;;;;;;;;;;;14.90;76.10;;;;;;5057704;28;19924;-80
2022/10/03 10:29:16;;;;;;;;;;;14.70;73.10;;;;;;5067091;28;20382;-80
2022/10/03 10:32:01;;;;;;;;;;;14.20;79.10;;;;;;5075757;28;19920;-80
2022/10/03 10:34:29;;;;;;;;;;;13.80;75.10;;;;;;5079875;28;19954;-80
2022/10/03 10:37:17;;;;;;;;;;;14.20;75.50;;;;;;5088804;28;19931;-80
2022/10/03 10:40:01;;;;;;;;;;;14.70;73.90;;;;;;5081413;28;19920;-80
2022/10/03 10:42:42;;;;;;;;;;;15.20;72.00;;;;;;5077389;28;19916;-80
2022/10/03 10:45:35;;;;;;;;;;;15.90;72.40;;;;;;5084636;28;19916;-80
2022/10/03 10:48:09;;;;;;;;;;;15.90;67.40;;;;;;5078471;28;20020;-80
2022/10/03 10:50:54;;;;;;;;;;;15.70;66.30;;;;;;5080931;28;19920;-80
2022/10/03 10:53:39;;;;;;;;;;;15.90;67.50;;;;;;5086186;28;19992;-79
2022/10/03 10:56:07;;;;;;;;;;;16.50;62.00;;;;;;5099984;28;19917;-80
2022/10/03 10:58:42;;;;;;;;;;;15.90;64.80;;;;;;5077588;28;20383;-79
2022/10/03 11:01:11;;;;;;;;;;;15.80;61.60;;;;;;5063828;28;20299;-79
2022/10/03 11:03:51;;;;;;;;;;;15.80;62.10;;;;;;5054261;28;19913;-79
2022/10/03 11:06:30;;;;;;;;;;;16.30;60.90;;;;;;5054239;28;20019;-79
2022/10/03 11:08:59;;;;;;;;;;;16.80;60.90;;;;;;5054340;28;19994;-79
2022/10/03 11:11:43;;;;;;;;;;;18.10;62.20;;;;;;5053591;28;20019;-79
2022/10/03 11:14:15;;;;;;;;;;;18.00;58.40;;;;;;5047207;28;19917;-79
2022/10/03 11:16:40;;;;;;;;;;;17.70;64.10;;;;;;5041529;28;19917;-79
2022/10/03 11:19:26;;;;;;;;;;;17.20;61.00;;;;;;5053920;28;19962;-79
2022/10/03 11:22:01;;;;;;;;;;;16.60;65.40;;;;;;5062245;28;19918;-78
2022/10/03 11:24:32;;;;;;;;;;;17.60;59.50;;;;;;5055822;28;19978;-78
2022/10/03 11:27:24;;;;;;;;;;;18.60;56.50;;;;;;5054766;28;19985;-79
2022/10/03 11:30:09;;;;;;;;;;;18.90;54.50;;;;;;5046621;28;19996;-78
2022/10/03 11:32:41;;;;;;;;;;;18.20;55.30;;;;;;5051340;28;19970;-79
2022/10/03 11:35:25;;;;;;;;;;;17.50;56.20;;;;;;5079481;28;20079;-79
2022/10/03 11:38:02;;;;;;;;;;;17.20;60.30;;;;;;5075152;28;20430;-79
2022/10/03 11:40:30;;;;;;;;;;;16.10;63.40;;;;;;5072553;28;20006;-78
2022/10/03 11:43:14;;;;;;;;;;;15.20;63.50;;;;;;5080385;28;19920;-78
2022/10/03 11:45:39;;;;;;;;;;;15.00;66.70;;;;;;5081511;28;19924;-79
2022/10/03 11:48:24;;;;;;;;;;;14.40;68.30;;;;;;5075865;28;19924;-78
2022/10/03 11:50:56;;;;;;;;;;;15.00;65.10;;;;;;5084441;28;21331;-78
2022/10/03 11:53:28;;;;;;;;;;;16.50;63.00;;;;;;5079146;28;19917;-79
2022/10/03 11:55:53;;;;;;;;;;;18.20;55.60;;;;;;5075906;28;19912;-78
2022/10/03 11:58:33;;;;;;;;;;;19.60;51.50;;;;;;5085431;28;19913;-78
2022/10/03 12:01:05;;;;;;;;;;;19.10;51.30;;;;;;5072772;28;19921;-78
2022/10/03 12:03:34;;;;;;;;;;;18.90;53.60;;;;;;5050463;28;19917;-78
2022/10/03 12:08:58;;;;;;;;;;;19.90;50.00;;;;;;5055414;28;19923;-79
2022/10/03 12:11:30;;;;;;;;;;;20.90;50.50;;;;;;5051201;28;19920;-79
2022/10/03 12:14:02;;;;;;;;;;;21.50;45.50;;;;;;5064972;28;20304;-78
2022/10/03 12:16:29;;;;;;;;;;;19.80;45.90;;;;;;5055979;28;20272;-78
2022/10/03 12:19:07;;;;;;;;;;;20.70;45.30;;;;;;5054623;28;20062;-78
2022/10/03 12:22:02;;;;;;;;;;;21.50;43.50;;;;;;5055322;28;19913;-79
2022/10/03 12:24:29;;;;;;;;;;;21.60;44.60;;;;;;5033645;28;20358;-79
2022/10/03 12:27:02;;;;;;;;;;;21.40;43.00;;;;;;5057324;28;20409;-79
2022/10/03 12:29:31;;;;;;;;;;;21.70;44.00;;;;;;5043500;28;20027;-78
2022/10/03 12:32:15;;;;;;;;;;;22.40;39.00;;;;;;5049775;28;19929;-79
2022/10/03 12:34:48;;;;;;;;;;;21.90;39.90;;;;;;5047941;28;20024;-79
2022/10/03 12:37:32;;;;;;;;;;;20.50;44.90;;;;;;5053595;28;19923;-78
2022/10/03 12:40:03;;;;;;;;;;;21.40;42.30;;;;;;5054253;28;19920;-79
2022/10/03 12:42:32;;;;;;;;;;;20.60;42.50;;;;;;5051916;28;19913;-78
2022/10/03 12:45:12;;;;;;;;;;;18.10;50.40;;;;;;5060819;28;19998;-78
2022/10/03 12:47:38;;;;;;;;;;;17.90;51.40;;;;;;5051410;28;19944;-78
2022/10/03 12:50:20;;;;;;;;;;;17.70;54.60;;;;;;5060816;28;19939;-78
2022/10/03 12:52:57;;;;;;;;;;;17.30;54.10;;;;;;5057119;28;19920;-78
2022/10/03 12:55:28;;;;;;;;;;;18.20;51.50;;;;;;5055409;28;19912;-78
2022/10/03 12:58:17;;;;;;;;;;;19.80;47.80;;;;;;5062850;28;20291;-78
2022/10/03 13:00:55;;;;;;;;;;;21.50;41.90;;;;;;5059457;28;19921;-78
2022/10/03 13:03:32;;;;;;;;;;;22.70;40.40;;;;;;5052260;28;20000;-78
2022/10/03 13:06:11;;;;;;;;;;;21.80;42.10;;;;;;5066211;28;19920;-79
2022/10/03 13:08:52;;;;;;;;;;;23.00;38.60;;;;;;5055694;28;19922;-79
2022/10/03 13:11:31;;;;;;;;;;;23.40;37.50;;;;;;5054805;28;20216;-79
2022/10/03 13:14:05;;;;;;;;;;;23.20;38.80;;;;;;5061640;28;19952;-78
2022/10/03 13:16:30;;;;;;;;;;;24.80;34.50;;;;;;5061034;28;19923;-79
2022/10/03 13:19:17;;;;;;;;;;;21.40;40.70;;;;;;5058183;28;19917;-78
2022/10/03 13:22:05;;;;;;;;;;;20.00;46.50;;;;;;5072141;28;20390;-78
2022/10/03 13:24:46;;;;;;;;;;;19.00;49.00;;;;;;5065671;28;19912;-78
2022/10/03 13:27:12;;;;;;;;;;;17.80;52.40;;;;;;5056259;28;20574;-78
2022/10/03 13:29:45;;;;;;;;;;;17.30;55.40;;;;;;5067105;28;20488;-78
2022/10/03 13:32:11;;;;;;;;;;;17.80;54.40;;;;;;5076967;28;19942;-78
2022/10/03 13:34:55;;;;;;;;;;;17.60;56.20;;;;;;5078595;28;20331;-78
2022/10/03 13:37:28;;;;;;;;;;;18.60;52.70;;;;;;5083329;28;19917;-78
2022/10/03 13:39:56;;;;;;;;;;;18.50;51.10;;;;;;5077625;28;20508;-78
2022/10/03 13:42:40;;;;;;;;;;;17.80;54.10;;;;;;5077150;28;19962;-78
2022/10/03 13:45:12;;;;;;;;;;;18.90;51.00;;;;;;5092495;28;19928;-78
2022/10/03 13:47:43;;;;;;;;;;;21.40;45.10;;;;;;5077849;28;20022;-79
2022/10/03 13:50:24;;;;;;;;;;;20.20;46.10;;;;;;5077652;28;19917;-78
2022/10/03 13:52:56;;;;;;;;;;;19.00;48.70;;;;;;5084137;28;19939;-78
2022/10/03 13:55:42;;;;;;;;;;;18.10;50.10;;;;;;5076747;28;19959;-78
2022/10/03 13:58:11;;;;;;;;;;;17.30;54.70;;;;;;5081638;28;19965;-78
2022/10/03 14:00:45;;;;;;;;;;;17.40;55.20;;;;;;5078828;28;20006;-78
2022/10/03 14:03:12;;;;;;;;;;;17.20;53.70;;;;;;5055664;28;20015;-78
2022/10/03 14:05:38;;;;;;;;;;;17.30;54.00;;;;;;5067822;28;19966;-78
2022/10/03 14:08:15;;;;;;;;;;;17.50;55.50;;;;;;5062864;28;19920;-78
2022/10/03 14:10:59;;;;;;;;;;;18.00;52.40;;;;;;5050825;28;20394;-78
2022/10/03 14:13:25;;;;;;;;;;;20.60;48.70;;;;;;5066151;28;20003;-78
2022/10/03 14:15:54;;;;;;;;;;;23.20;41.70;;;;;;5061579;28;20004;-79
2022/10/03 14:18:34;;;;;;;;;;;25.30;36.30;;;;;;5051259;28;19917;-78
2022/10/03 14:21:18;;;;;;;;;;;26.30;31.00;;;;;;5064674;28;20154;-79
2022/10/03 14:23:50;;;;;;;;;;;27.10;32.00;;;;;;5055105;28;19923;-78
2022/10/03 14:26:20;;;;;;;;;;;25.00;35.40;;;;;;5053984;28;19920;-78
2022/10/03 14:28:50;;;;;;;;;;;25.50;31.30;;;;;;5063577;28;20365;-79
2022/10/03 14:31:19;;;;;;;;;;;24.90;32.50;;;;;;5059728;28;19939;-79
2022/10/03 14:33:50;;;;;;;;;;;25.20;30.80;;;;;;5054592;28;19920;-79
2022/10/03 14:36:28;;;;;;;;;;;23.70;34.70;;;;;;5066708;28;19917;-78
2022/10/03 14:39:12;;;;;;;;;;;23.10;36.30;;;;;;5058505;28;20009;-79
2022/10/03 14:41:42;;;;;;;;;;;23.20;34.20;;;;;;5051860;28;19966;-79
2022/10/03 14:44:10;;;;;;;;;;;24.40;31.20;;;;;;5065563;28;20011;-79
2022/10/03 14:46:41;;;;;;;;;;;25.80;31.70;;;;;;5059598;28;19955;-78
2022/10/03 14:49:12;;;;;;;;;;;25.40;32.00;;;;;;5056269;28;20010;-79
2022/10/03 14:51:46;;;;;;;;;;;26.20;31.70;;;;;;5062720;28;19955;-79
2022/10/03 14:54:18;;;;;;;;;;;26.50;32.40;;;;;;5058926;28;19939;-79
2022/10/03 14:56:45;;;;;;;;;;;26.40;32.20;;;;;;5053756;28;19916;-79
2022/10/03 14:59:12;;;;;;;;;;;26.10;32.90;;;;;;5064209;28;19917;-79
2022/10/03 15:01:45;;;;;;;;;;;25.80;32.50;;;;;;5071260;28;19924;-78
2022/10/03 15:04:20;;;;;;;;;;;25.10;32.80;;;;;;5072099;28;20388;-78
2022/10/03 15:06:45;;;;;;;;;;;24.70;33.60;;;;;;5081159;28;19920;-76
2022/10/03 15:09:12;;;;;;;;;;;21.60;39.70;;;;;;5080822;28;19922;-78
2022/10/03 15:11:46;;;;;;;;;;;19.70;45.20;;;;;;5074223;28;19916;-78
2022/10/03 15:14:13;;;;;;;;;;;19.00;47.90;;;;;;5080725;28;20377;-78
2022/10/03 15:16:52;;;;;;;;;;;18.40;49.60;;;;;;5077986;28;19923;-77
2022/10/03 15:19:38;;;;;;;;;;;18.00;51.00;;;;;;5077062;28;19924;-77
2022/10/03 15:22:15;;;;;;;;;;;19.00;50.40;;;;;;5083648;28;19912;-78